createdAt,value
2022-11-29T00:01:05.377Z,16.03
2022-11-29T00:03:32.692Z,19.57
2022-11-29T00:06:04.926Z,17.60
2022-11-29T00:08:32.040Z,16.90
2022-11-29T00:11:03.492Z,16.00
2022-11-29T00:13:30.702Z,15.77
2022-11-29T00:16:02.090Z,15.23
2022-11-29T00:18:29.382Z,16.40
2022-11-29T00:20:56.730Z,16.40
2022-11-29T00:23:23.838Z,16.30
2022-11-29T00:25:50.999Z,17.17
2022-11-29T00:28:20.252Z,15.27
2022-11-29T00:30:47.404Z,18.27
2022-11-29T00:33:14.571Z,16.57
2022-11-29T00:35:41.683Z,16.67
2022-11-29T00:38:11.674Z,15.47
2022-11-29T00:40:38.770Z,16.90
2022-11-29T00:43:05.872Z,16.03
2022-11-29T00:45:32.962Z,18.00
2022-11-29T00:48:00.090Z,18.20
2022-11-29T00:50:27.262Z,16.00
2022-11-29T00:52:54.376Z,16.23
2022-11-29T00:55:21.507Z,19.30
2022-11-29T00:57:48.578Z,16.80
2022-11-29T01:00:16.146Z,17.60
2022-11-29T01:02:43.283Z,19.53
2022-11-29T01:05:10.517Z,16.53
2022-11-29T01:07:37.635Z,16.27
2022-11-29T01:10:04.955Z,15.83
2022-11-29T01:12:32.045Z,17.57
2022-11-29T01:14:59.399Z,15.73
2022-11-29T01:17:26.533Z,16.77
2022-11-29T01:19:53.613Z,17.23
2022-11-29T01:22:20.742Z,14.60
2022-11-29T01:24:47.858Z,16.30
2022-11-29T01:27:15.039Z,15.67
2022-11-29T01:29:42.226Z,15.23
2022-11-29T01:32:09.324Z,15.40
2022-11-29T01:34:36.437Z,15.07
2022-11-29T01:37:03.529Z,14.80
2022-11-29T01:39:30.658Z,14.90
2022-11-29T01:41:57.921Z,16.20
2022-11-29T01:44:25.042Z,14.93
2022-11-29T01:46:52.111Z,14.20
2022-11-29T01:49:27.335Z,14.67
2022-11-29T01:51:57.542Z,14.23
2022-11-29T01:54:24.739Z,14.60
2022-11-29T01:56:51.919Z,16.20
2022-11-29T01:59:25.537Z,13.90
2022-11-29T02:01:52.671Z,15.80
2022-11-29T02:04:19.803Z,14.07
2022-11-29T02:06:46.968Z,15.47
2022-11-29T02:09:20.325Z,14.20
2022-11-29T02:11:59.805Z,14.50
2022-11-29T02:14:32.659Z,14.17
2022-11-29T02:17:05.853Z,14.20
2022-11-29T02:19:51.882Z,15.23
2022-11-29T02:22:25.297Z,13.90
2022-11-29T02:25:04.139Z,14.47
2022-11-29T02:27:37.478Z,14.90
2022-11-29T02:30:05.170Z,13.50
2022-11-29T02:32:39.307Z,14.03
2022-11-29T02:35:11.346Z,16.30
2022-11-29T02:37:47.589Z,13.70
2022-11-29T02:40:22.912Z,13.47
2022-11-29T02:43:08.970Z,14.23
2022-11-29T02:45:42.049Z,14.00
2022-11-29T02:48:15.403Z,13.83
2022-11-29T02:50:54.218Z,14.03
2022-11-29T02:53:25.428Z,14.57
2022-11-29T02:55:52.566Z,14.27
2022-11-29T02:58:34.888Z,14.87
2022-11-29T03:01:25.344Z,13.57
2022-11-29T03:03:57.176Z,14.10
2022-11-29T03:06:27.541Z,15.10
2022-11-29T03:09:01.717Z,13.63
2022-11-29T03:11:31.812Z,13.47
2022-11-29T03:14:01.809Z,13.87
2022-11-29T03:16:58.111Z,13.97
2022-11-29T03:19:30.887Z,14.03
2022-11-29T03:22:15.814Z,13.40
2022-11-29T03:24:48.171Z,14.40
2022-11-29T03:27:17.706Z,15.20
2022-11-29T03:29:58.061Z,16.90
2022-11-29T03:32:31.394Z,15.90
2022-11-29T03:35:08.642Z,15.73
2022-11-29T03:37:57.443Z,15.20
2022-11-29T03:40:34.158Z,15.97
2022-11-29T03:43:01.272Z,14.83
2022-11-29T03:45:35.946Z,14.57
2022-11-29T03:48:05.195Z,15.50
2022-11-29T03:50:51.578Z,14.83
2022-11-29T03:53:37.725Z,14.30
2022-11-29T03:56:05.731Z,14.43
2022-11-29T03:58:38.144Z,16.00
2022-11-29T04:01:24.729Z,14.53
2022-11-29T04:03:54.867Z,12.90
2022-11-29T04:06:24.961Z,15.87
2022-11-29T04:09:10.233Z,15.87
2022-11-29T04:11:54.955Z,13.43
2022-11-29T04:14:28.448Z,13.60
2022-11-29T04:17:04.964Z,15.90
2022-11-29T04:19:38.305Z,14.67
2022-11-29T04:22:28.762Z,13.93
2022-11-29T04:25:14.275Z,14.57
2022-11-29T04:27:49.262Z,14.43
2022-11-29T04:30:18.052Z,14.90
2022-11-29T04:32:57.578Z,12.67
2022-11-29T04:35:37.143Z,14.80
2022-11-29T04:38:04.370Z,13.73
2022-11-29T04:40:34.679Z,13.50
2022-11-29T04:43:07.059Z,13.50
2022-11-29T04:45:37.387Z,13.53
2022-11-29T04:48:26.095Z,14.50
2022-11-29T04:51:11.975Z,15.07
2022-11-29T04:53:57.523Z,13.90
2022-11-29T04:56:43.316Z,13.47
2022-11-29T04:59:10.406Z,12.10
2022-11-29T05:01:58.116Z,13.77
2022-11-29T05:04:37.637Z,13.47
2022-11-29T05:07:12.978Z,13.63
2022-11-29T05:09:56.639Z,13.60
2022-11-29T05:12:42.539Z,13.03
2022-11-29T05:15:21.991Z,14.03
2022-11-29T05:18:09.719Z,13.00
2022-11-29T05:21:05.885Z,13.00
2022-11-29T05:23:51.555Z,13.27
2022-11-29T05:26:18.644Z,12.87
2022-11-29T05:28:54.752Z,12.27
2022-11-29T05:31:40.014Z,11.80
2022-11-29T05:34:29.021Z,13.30
2022-11-29T05:37:05.218Z,12.70
2022-11-29T05:39:35.159Z,13.90
2022-11-29T05:42:20.954Z,12.60
2022-11-29T05:44:58.947Z,12.20
2022-11-29T05:47:46.385Z,13.47
2022-11-29T05:50:16.550Z,11.60
2022-11-29T05:52:54.856Z,11.10
2022-11-29T05:55:32.373Z,12.50
2022-11-29T05:58:32.248Z,13.63
2022-11-29T06:01:00.929Z,14.77
2022-11-29T06:03:36.557Z,13.50
2022-11-29T06:06:27.106Z,12.33
2022-11-29T06:09:13.363Z,12.57
2022-11-29T06:11:44.965Z,12.40
2022-11-29T06:14:20.098Z,13.23
2022-11-29T06:16:57.456Z,13.23
2022-11-29T06:19:43.653Z,14.50
2022-11-29T06:22:26.879Z,13.37
2022-11-29T06:24:56.515Z,13.97
2022-11-29T06:27:32.999Z,14.97
2022-11-29T06:30:06.857Z,15.63
2022-11-29T06:32:50.517Z,14.80
2022-11-29T06:35:20.694Z,13.60
2022-11-29T06:37:51.309Z,14.20
2022-11-29T06:40:18.607Z,12.67
2022-11-29T06:42:45.777Z,13.53
2022-11-29T06:45:13.820Z,15.40
2022-11-29T06:47:59.760Z,13.77
2022-11-29T06:50:45.213Z,12.80
2022-11-29T06:53:15.524Z,13.67
2022-11-29T06:55:45.055Z,16.07
2022-11-29T06:58:15.313Z,13.67
2022-11-29T07:00:53.827Z,12.80
2022-11-29T07:03:33.442Z,13.17
2022-11-29T07:06:00.514Z,12.80
2022-11-29T07:08:27.777Z,13.30
2022-11-29T07:10:59.581Z,13.37
2022-11-29T07:13:26.902Z,14.17
2022-11-29T07:16:00.288Z,14.60
2022-11-29T07:18:33.940Z,13.83
2022-11-29T07:21:10.314Z,13.20
2022-11-29T07:23:52.700Z,13.37
2022-11-29T07:26:22.225Z,15.07
2022-11-29T07:29:04.284Z,16.27
2022-11-29T07:31:33.469Z,14.73
2022-11-29T07:34:12.760Z,16.67
2022-11-29T07:36:39.857Z,15.50
2022-11-29T07:39:16.183Z,15.27
2022-11-29T07:41:43.373Z,14.97
2022-11-29T07:44:19.542Z,17.03
2022-11-29T07:46:46.727Z,15.03
2022-11-29T07:49:13.935Z,18.53
2022-11-29T07:51:43.544Z,16.10
2022-11-29T07:54:11.380Z,16.47
2022-11-29T07:56:38.547Z,17.40
2022-11-29T07:59:06.824Z,16.43
2022-11-29T08:01:34.308Z,16.43
2022-11-29T08:04:01.521Z,15.90
2022-11-29T08:06:28.631Z,15.87
2022-11-29T08:08:57.958Z,21.50
2022-11-29T08:11:25.065Z,23.13
2022-11-29T08:13:56.406Z,17.27
2022-11-29T08:16:23.549Z,18.43
2022-11-29T08:18:50.727Z,17.20
2022-11-29T08:21:18.302Z,16.63
2022-11-29T08:23:48.785Z,19.27
2022-11-29T08:26:16.227Z,18.67
2022-11-29T08:28:43.373Z,18.30
2022-11-29T08:31:11.048Z,22.30
2022-11-29T08:33:38.620Z,22.33
2022-11-29T08:36:06.813Z,16.60
2022-11-29T08:38:33.925Z,19.77
2022-11-29T08:41:02.398Z,18.80
2022-11-29T08:43:30.174Z,39.10
2022-11-29T08:45:57.533Z,29.17
2022-11-29T08:48:24.748Z,18.33
2022-11-29T08:50:52.443Z,19.83
2022-11-29T08:53:38.272Z,18.53
2022-11-29T08:56:23.503Z,19.40
2022-11-29T08:58:53.068Z,21.23
2022-11-29T09:01:20.301Z,19.00
2022-11-29T09:03:59.536Z,20.67
2022-11-29T09:06:27.447Z,21.53
2022-11-29T09:08:57.742Z,20.33
2022-11-29T09:11:25.372Z,20.83
2022-11-29T09:13:53.473Z,41.73
2022-11-29T09:16:21.625Z,24.67
2022-11-29T09:18:56.009Z,19.83
2022-11-29T09:21:24.361Z,18.83
2022-11-29T09:23:58.017Z,18.80
2022-11-29T09:26:25.866Z,20.53
2022-11-29T09:28:53.028Z,19.77
2022-11-29T09:31:20.582Z,20.13
2022-11-29T09:33:49.137Z,17.27
2022-11-29T09:36:16.412Z,17.80
2022-11-29T09:38:43.505Z,18.73
2022-11-29T09:41:16.806Z,17.30
2022-11-29T09:44:00.641Z,17.90
2022-11-29T09:46:46.348Z,16.47
2022-11-29T09:49:13.448Z,17.20
2022-11-29T09:51:50.458Z,19.00
2022-11-29T09:54:29.950Z,19.70
2022-11-29T09:56:57.246Z,18.20
2022-11-29T09:59:37.814Z,20.23
2022-11-29T10:02:21.439Z,18.53
2022-11-29T10:04:50.900Z,17.80
2022-11-29T10:07:22.375Z,20.97
2022-11-29T10:09:55.551Z,18.73
2022-11-29T10:12:41.403Z,18.53
2022-11-29T10:15:17.477Z,20.50
2022-11-29T10:18:04.811Z,20.20
2022-11-29T10:20:35.365Z,19.07
2022-11-29T10:23:18.912Z,17.73
2022-11-29T10:25:46.775Z,19.10
2022-11-29T10:28:15.245Z,19.30
2022-11-29T10:30:42.573Z,21.83
2022-11-29T10:33:36.067Z,22.10
2022-11-29T10:36:04.683Z,16.70
2022-11-29T10:38:32.138Z,19.33
2022-11-29T10:41:06.539Z,16.47
2022-11-29T10:43:34.023Z,16.37
2022-11-29T10:46:02.490Z,17.07
2022-11-29T10:48:32.049Z,16.33
2022-11-29T10:50:59.200Z,19.90
2022-11-29T10:53:27.130Z,19.43
2022-11-29T10:55:55.899Z,17.40
2022-11-29T10:58:28.617Z,24.00
2022-11-29T11:01:00.153Z,19.27
2022-11-29T11:03:33.594Z,16.60
2022-11-29T11:06:03.675Z,15.53
2022-11-29T11:08:31.550Z,18.70
2022-11-29T11:11:01.753Z,15.33
2022-11-29T11:13:29.987Z,18.07
2022-11-29T11:16:11.159Z,16.73
2022-11-29T11:18:38.446Z,16.43
2022-11-29T11:21:05.587Z,17.53
2022-11-29T11:23:36.373Z,17.10
2022-11-29T11:26:09.640Z,15.40
2022-11-29T11:28:49.618Z,16.57
2022-11-29T11:31:16.806Z,16.40
2022-11-29T11:33:44.630Z,18.43
2022-11-29T11:36:38.067Z,16.87
2022-11-29T11:39:12.071Z,22.17
2022-11-29T11:41:58.463Z,15.90
2022-11-29T11:44:46.557Z,15.93
2022-11-29T11:47:19.376Z,14.60
2022-11-29T11:49:46.806Z,15.23
2022-11-29T11:52:21.538Z,17.47
2022-11-29T11:54:52.261Z,14.50
2022-11-29T11:57:19.578Z,13.83
2022-11-29T11:59:53.381Z,14.47
2022-11-29T12:02:41.991Z,13.40
2022-11-29T12:05:16.433Z,15.33
2022-11-29T12:08:08.419Z,12.53
2022-11-29T12:10:35.971Z,12.97
2022-11-29T12:13:03.098Z,13.47
2022-11-29T12:15:31.808Z,14.40
2022-11-29T12:18:02.051Z,13.63
2022-11-29T12:20:31.399Z,14.50
2022-11-29T12:23:16.730Z,13.00
2022-11-29T12:26:00.262Z,31.03
2022-11-29T12:28:33.878Z,13.27
2022-11-29T12:31:19.411Z,14.20
2022-11-29T12:33:58.849Z,14.37
2022-11-29T12:36:25.932Z,12.10
2022-11-29T12:39:05.285Z,11.80
2022-11-29T12:41:37.949Z,13.03
2022-11-29T12:44:05.348Z,11.60
2022-11-29T12:46:32.489Z,13.70
2022-11-29T12:49:08.258Z,12.40
2022-11-29T12:51:47.225Z,13.40
2022-11-29T12:54:14.308Z,10.47
2022-11-29T12:56:41.423Z,12.17
2022-11-29T12:59:17.791Z,12.23
2022-11-29T13:02:03.618Z,8.50
2022-11-29T13:04:58.101Z,8.40
2022-11-29T13:07:30.213Z,7.43
2022-11-29T13:10:04.910Z,7.40
2022-11-29T13:12:50.845Z,7.70
2022-11-29T13:15:19.015Z,7.20
2022-11-29T13:18:03.090Z,6.30
2022-11-29T13:20:34.718Z,7.00
2022-11-29T13:23:11.073Z,9.00
2022-11-29T13:25:38.754Z,8.40
2022-11-29T13:28:06.847Z,6.40
2022-11-29T13:30:36.781Z,9.40
2022-11-29T13:33:05.678Z,8.87
2022-11-29T13:35:43.072Z,7.03
2022-11-29T13:38:29.001Z,7.43
2022-11-29T13:41:19.363Z,6.43
2022-11-29T13:43:47.011Z,8.03
2022-11-29T13:46:20.468Z,8.13
2022-11-29T13:48:51.786Z,7.50
2022-11-29T13:51:27.894Z,9.23
2022-11-29T13:53:55.307Z,8.03
2022-11-29T13:56:26.532Z,8.40
2022-11-29T13:58:54.633Z,7.63
2022-11-29T14:01:22.549Z,8.43
2022-11-29T14:04:01.256Z,8.10
2022-11-29T14:06:38.094Z,9.07
2022-11-29T14:09:19.405Z,9.57
2022-11-29T14:12:06.377Z,8.30
2022-11-29T14:14:39.688Z,10.23
2022-11-29T14:17:06.993Z,9.10
2022-11-29T14:19:34.711Z,8.77
2022-11-29T14:22:01.914Z,10.00
2022-11-29T14:24:35.460Z,8.47
2022-11-29T14:27:09.927Z,9.03
2022-11-29T14:29:55.257Z,9.33
2022-11-29T14:32:25.251Z,7.77
2022-11-29T14:35:15.913Z,8.93
2022-11-29T14:38:01.498Z,7.90
2022-11-29T14:40:40.806Z,7.20
2022-11-29T14:43:22.990Z,8.30
2022-11-29T14:46:09.067Z,7.47
2022-11-29T14:48:36.625Z,8.43
2022-11-29T14:51:16.723Z,7.53
2022-11-29T14:53:44.261Z,6.90
2022-11-29T14:56:32.350Z,7.10
2022-11-29T14:59:18.371Z,7.13
2022-11-29T15:01:45.610Z,6.60
2022-11-29T15:04:12.948Z,6.70
2022-11-29T15:06:46.158Z,5.80
2022-11-29T15:09:17.958Z,5.37
2022-11-29T15:11:52.428Z,4.37
2022-11-29T15:14:20.718Z,4.83
2022-11-29T15:17:20.562Z,4.40
2022-11-29T15:19:56.709Z,5.73
2022-11-29T15:22:52.338Z,5.00
2022-11-29T15:25:20.786Z,5.53
2022-11-29T15:27:54.731Z,5.40
2022-11-29T15:30:30.996Z,6.47
2022-11-29T15:32:58.507Z,5.20
2022-11-29T15:35:25.640Z,5.70
2022-11-29T15:37:52.816Z,5.53
2022-11-29T15:40:24.058Z,5.37
2022-11-29T15:42:55.270Z,5.63
2022-11-29T15:45:26.744Z,5.30
2022-11-29T15:47:54.022Z,5.30
2022-11-29T15:50:27.886Z,5.97
2022-11-29T15:52:56.110Z,7.00
2022-11-29T15:55:23.286Z,8.10
2022-11-29T15:57:50.863Z,7.87
2022-11-29T16:00:20.299Z,6.50
2022-11-29T16:02:49.050Z,7.50
2022-11-29T16:05:16.285Z,6.60
2022-11-29T16:07:43.985Z,7.27
2022-11-29T16:10:12.766Z,8.53
2022-11-29T16:12:52.147Z,11.90
2022-11-29T16:15:29.395Z,8.23
2022-11-29T16:17:56.537Z,8.70
2022-11-29T16:20:24.323Z,8.57
2022-11-29T16:23:13.500Z,9.03
2022-11-29T16:25:59.098Z,9.47
2022-11-29T16:28:27.223Z,9.17
2022-11-29T16:30:54.290Z,8.80
2022-11-29T16:33:22.402Z,9.93
2022-11-29T16:35:49.525Z,10.10
2022-11-29T16:38:23.057Z,9.47
2022-11-29T16:41:06.559Z,9.10
2022-11-29T16:43:47.424Z,9.90
2022-11-29T16:46:20.614Z,12.83
2022-11-29T16:48:48.391Z,11.20
2022-11-29T16:51:18.134Z,9.10
2022-11-29T16:53:48.361Z,10.30
2022-11-29T16:56:15.903Z,12.23
2022-11-29T16:59:26.929Z,11.40
2022-11-29T17:01:30.998Z,11.57
2022-11-29T17:03:59.564Z,11.43
2022-11-29T17:06:26.874Z,11.87
2022-11-29T17:08:54.891Z,12.20
2022-11-29T17:11:22.039Z,11.37
2022-11-29T17:13:50.112Z,11.33
2022-11-29T17:16:18.465Z,10.40
2022-11-29T17:18:45.669Z,14.20
2022-11-29T17:21:22.551Z,15.33
2022-11-29T17:23:50.785Z,12.10
2022-11-29T17:26:17.999Z,11.60
2022-11-29T17:28:45.668Z,11.83
2022-11-29T17:31:13.309Z,11.47
2022-11-29T17:33:40.410Z,14.33
2022-11-29T17:36:07.775Z,11.13
2022-11-29T17:38:35.055Z,13.00
2022-11-29T17:41:08.874Z,12.50
2022-11-29T17:43:36.625Z,12.70
2022-11-29T17:46:16.728Z,13.47
2022-11-29T17:48:46.199Z,13.47
2022-11-29T17:51:43.543Z,12.93
2022-11-29T17:54:04.453Z,12.73
2022-11-29T17:56:31.631Z,13.50
2022-11-29T17:58:59.375Z,12.77
2022-11-29T18:01:27.137Z,15.57
2022-11-29T18:03:55.267Z,14.43
2022-11-29T18:06:23.187Z,15.03
2022-11-29T18:08:51.040Z,16.23
2022-11-29T18:11:19.157Z,17.23
2022-11-29T18:13:46.464Z,15.00
2022-11-29T18:16:20.812Z,15.77
2022-11-29T18:18:47.979Z,13.67
2022-11-29T18:21:15.203Z,14.90
2022-11-29T18:23:42.885Z,15.70
2022-11-29T18:26:17.488Z,14.10
2022-11-29T18:28:44.830Z,13.33
2022-11-29T18:31:12.884Z,15.63
2022-11-29T18:33:40.566Z,13.27
2022-11-29T18:36:10.020Z,13.77
2022-11-29T18:38:37.625Z,14.50
2022-11-29T18:41:11.950Z,14.33
2022-11-29T18:43:40.216Z,14.87
2022-11-29T18:46:10.518Z,16.90
2022-11-29T18:48:37.778Z,15.07
2022-11-29T18:51:05.096Z,15.40
2022-11-29T18:53:32.275Z,16.97
2022-11-29T18:56:02.207Z,17.57
2022-11-29T18:58:29.281Z,14.77
2022-11-29T19:01:02.864Z,17.07
2022-11-29T19:03:30.317Z,14.90
2022-11-29T19:05:57.471Z,19.20
2022-11-29T19:08:25.668Z,20.30
2022-11-29T19:10:52.767Z,21.73
2022-11-29T19:13:19.849Z,18.97
2022-11-29T19:15:56.111Z,19.60
2022-11-29T19:18:23.240Z,21.90
2022-11-29T19:20:51.117Z,18.57
2022-11-29T19:23:18.247Z,22.60
2022-11-29T19:25:45.387Z,20.40
2022-11-29T19:28:14.294Z,22.70
2022-11-29T19:30:41.764Z,19.63
2022-11-29T19:33:08.916Z,21.77
2022-11-29T19:35:36.142Z,25.33
2022-11-29T19:38:03.240Z,24.07
2022-11-29T19:40:30.336Z,19.97
2022-11-29T19:42:57.434Z,20.57
2022-11-29T19:45:24.499Z,23.57
2022-11-29T19:47:51.631Z,23.70
2022-11-29T19:50:18.780Z,22.50
2022-11-29T19:52:45.919Z,23.90
2022-11-29T19:55:13.030Z,23.93
2022-11-29T19:57:40.175Z,23.83
2022-11-29T20:00:07.539Z,23.60
2022-11-29T20:02:34.777Z,24.90
2022-11-29T20:05:01.883Z,21.43
2022-11-29T20:07:29.137Z,22.70
2022-11-29T20:09:56.283Z,24.07
2022-11-29T20:12:23.389Z,27.33
2022-11-29T20:14:50.453Z,27.67
2022-11-29T20:17:17.556Z,23.77
2022-11-29T20:19:45.006Z,27.60
2022-11-29T20:22:12.468Z,26.73
2022-11-29T20:24:45.093Z,29.83
2022-11-29T20:27:12.749Z,27.30
2022-11-29T20:29:39.845Z,25.90
2022-11-29T20:32:06.950Z,26.63
2022-11-29T20:34:34.138Z,24.70
2022-11-29T20:37:11.785Z,27.83
2022-11-29T20:39:42.246Z,26.77
2022-11-29T20:42:18.725Z,29.30
2022-11-29T20:44:53.240Z,28.80
2022-11-29T20:47:24.139Z,28.27
2022-11-29T20:49:51.403Z,26.00
2022-11-29T20:52:37.399Z,24.93
2022-11-29T20:55:05.089Z,26.07
2022-11-29T20:57:32.165Z,25.80
2022-11-29T20:59:59.382Z,27.57
2022-11-29T21:02:26.523Z,27.10
2022-11-29T21:04:56.127Z,22.67
2022-11-29T21:07:26.043Z,23.13
2022-11-29T21:09:56.682Z,26.30
2022-11-29T21:12:28.199Z,26.90
2022-11-29T21:14:55.566Z,27.20
2022-11-29T21:17:22.801Z,23.50
2022-11-29T21:19:52.485Z,26.70
2022-11-29T21:22:31.327Z,24.43
2022-11-29T21:25:10.429Z,24.57
2022-11-29T21:27:37.798Z,25.37
2022-11-29T21:30:05.693Z,22.40
2022-11-29T21:32:33.011Z,24.97
2022-11-29T21:35:02.029Z,24.60
2022-11-29T21:37:29.834Z,24.10
2022-11-29T21:39:57.572Z,24.50
2022-11-29T21:42:24.684Z,23.00
2022-11-29T21:44:52.259Z,22.57
2022-11-29T21:47:19.615Z,27.10
2022-11-29T21:49:47.154Z,26.50
2022-11-29T21:52:19.058Z,24.70
2022-11-29T21:54:49.434Z,23.30
2022-11-29T21:57:16.679Z,24.07
2022-11-29T21:59:44.137Z,21.90
2022-11-29T22:02:11.304Z,24.13
2022-11-29T22:04:38.596Z,27.87
2022-11-29T22:07:05.680Z,27.53
2022-11-29T22:09:32.948Z,24.37
2022-11-29T22:12:00.087Z,31.37
2022-11-29T22:14:27.211Z,26.20
2022-11-29T22:16:57.775Z,27.93
2022-11-29T22:19:31.598Z,26.30
2022-11-29T22:21:59.547Z,32.10
2022-11-29T22:24:27.475Z,27.60
2022-11-29T22:26:54.778Z,26.53
2022-11-29T22:29:21.966Z,31.90
2022-11-29T22:31:49.798Z,29.03
2022-11-29T22:34:17.053Z,25.93
2022-11-29T22:36:44.284Z,29.47
2022-11-29T22:39:11.560Z,35.23
2022-11-29T22:41:38.842Z,28.17
2022-11-29T22:44:06.023Z,28.97
2022-11-29T22:46:35.305Z,24.80
2022-11-29T22:49:03.156Z,28.73
2022-11-29T22:51:31.021Z,25.50
2022-11-29T22:53:58.687Z,30.10
2022-11-29T22:56:26.952Z,30.73
2022-11-29T22:58:54.040Z,25.13
2022-11-29T23:01:21.898Z,28.90
2022-11-29T23:03:51.765Z,28.20
2022-11-29T23:06:19.629Z,26.87
2022-11-29T23:08:47.012Z,27.47
2022-11-29T23:11:15.209Z,29.37
2022-11-29T23:13:42.688Z,27.37
2022-11-29T23:16:10.949Z,25.77
2022-11-29T23:18:39.800Z,25.37
2022-11-29T23:21:07.663Z,29.43
2022-11-29T23:23:34.782Z,23.73
2022-11-29T23:26:01.913Z,30.70
2022-11-29T23:28:29.113Z,23.43
2022-11-29T23:30:56.317Z,24.47
2022-11-29T23:33:23.631Z,28.70
2022-11-29T23:35:51.228Z,27.00
2022-11-29T23:38:18.445Z,24.33
2022-11-29T23:40:45.574Z,24.83
2022-11-29T23:43:12.695Z,25.90
2022-11-29T23:45:39.949Z,26.40
2022-11-29T23:48:07.064Z,23.33
2022-11-29T23:50:34.416Z,24.57
2022-11-29T23:53:01.595Z,24.50
2022-11-29T23:55:28.722Z,26.33
2022-11-29T23:57:55.804Z,25.73
